createdAt,value
2022-11-30T00:00:28.650Z,10.20
2022-11-30T00:02:57.353Z,10.05
2022-11-30T00:05:26.284Z,9.99
2022-11-30T00:07:54.510Z,9.72
2022-11-30T00:10:22.232Z,9.96
2022-11-30T00:12:49.827Z,9.68
2022-11-30T00:15:17.988Z,9.88
2022-11-30T00:17:45.568Z,9.94
2022-11-30T00:20:16.519Z,10.12
2022-11-30T00:22:45.397Z,9.97
2022-11-30T00:25:12.851Z,10.11
2022-11-30T00:27:40.299Z,10.07
2022-11-30T00:30:08.417Z,9.91
2022-11-30T00:32:35.923Z,9.82
2022-11-30T00:35:03.438Z,9.80
2022-11-30T00:37:30.973Z,10.10
2022-11-30T00:39:59.796Z,9.99
2022-11-30T00:42:27.241Z,10.14
2022-11-30T00:44:54.768Z,10.05
2022-11-30T00:47:22.334Z,9.88
2022-11-30T00:49:49.824Z,9.94
2022-11-30T00:52:17.275Z,10.03
2022-11-30T00:54:44.894Z,9.85
2022-11-30T00:57:14.004Z,9.93
2022-11-30T00:59:41.541Z,10.11
2022-11-30T01:02:09.527Z,9.99
2022-11-30T01:04:37.064Z,9.61
2022-11-30T01:07:04.559Z,9.64
2022-11-30T01:09:32.031Z,9.62
2022-11-30T01:11:59.559Z,9.65
2022-11-30T01:14:28.620Z,9.49
2022-11-30T01:16:56.522Z,9.61
2022-11-30T01:19:24.841Z,9.83
2022-11-30T01:21:52.304Z,10.01
2022-11-30T01:24:19.735Z,9.92
2022-11-30T01:26:47.223Z,10.03
2022-11-30T01:29:14.715Z,10.01
2022-11-30T01:31:43.556Z,10.04
2022-11-30T01:34:11.069Z,9.64
2022-11-30T01:36:39.009Z,9.56
2022-11-30T01:39:08.095Z,9.31
2022-11-30T01:41:35.690Z,9.21
2022-11-30T01:44:19.975Z,9.34
2022-11-30T01:46:50.229Z,9.20
2022-11-30T01:49:19.095Z,9.02
2022-11-30T01:51:47.645Z,9.37
2022-11-30T01:54:16.733Z,9.34
2022-11-30T01:56:45.212Z,9.36
2022-11-30T01:59:12.718Z,9.12
2022-11-30T02:01:40.250Z,9.16
2022-11-30T02:04:09.462Z,9.07
2022-11-30T02:06:36.980Z,8.87
2022-11-30T02:09:04.599Z,8.82
2022-11-30T02:11:32.174Z,9.09
2022-11-30T02:14:01.181Z,8.82
2022-11-30T02:16:30.711Z,9.09
2022-11-30T02:19:00.403Z,9.21
2022-11-30T02:21:30.472Z,9.43
2022-11-30T02:24:16.786Z,9.07
2022-11-30T02:26:49.485Z,8.94
2022-11-30T02:29:19.720Z,8.73
2022-11-30T02:31:48.972Z,8.95
2022-11-30T02:34:16.921Z,8.75
2022-11-30T02:36:44.425Z,8.60
2022-11-30T02:39:12.473Z,9.15
2022-11-30T02:41:40.310Z,8.99
2022-11-30T02:44:08.382Z,8.84
2022-11-30T02:46:40.103Z,8.98
2022-11-30T02:49:08.651Z,9.21
2022-11-30T02:51:36.121Z,8.95
2022-11-30T02:54:03.693Z,9.06
2022-11-30T02:56:31.217Z,9.22
2022-11-30T02:58:58.659Z,9.09
2022-11-30T03:01:26.266Z,8.80
2022-11-30T03:03:55.168Z,8.83
2022-11-30T03:06:22.655Z,8.88
2022-11-30T03:08:50.092Z,8.95
2022-11-30T03:11:17.576Z,9.25
2022-11-30T03:13:45.069Z,9.06
2022-11-30T03:16:13.425Z,8.87
2022-11-30T03:18:41.154Z,9.27
2022-11-30T03:21:10.549Z,9.30
2022-11-30T03:23:38.064Z,9.59
2022-11-30T03:26:05.907Z,9.39
2022-11-30T03:28:33.682Z,9.10
2022-11-30T03:31:01.266Z,9.42
2022-11-30T03:33:28.799Z,9.16
2022-11-30T03:36:00.108Z,9.32
2022-11-30T03:38:28.963Z,9.42
2022-11-30T03:41:02.787Z,9.62
2022-11-30T03:43:30.373Z,9.15
2022-11-30T03:45:57.809Z,9.36
2022-11-30T03:48:26.321Z,9.18
2022-11-30T03:50:53.882Z,9.81
2022-11-30T03:53:22.419Z,9.81
2022-11-30T03:55:54.568Z,9.86
2022-11-30T03:58:22.203Z,9.43
2022-11-30T04:00:49.695Z,9.40
2022-11-30T04:03:17.210Z,9.24
2022-11-30T04:05:44.687Z,9.53
2022-11-30T04:08:12.212Z,9.56
2022-11-30T04:10:39.664Z,9.02
2022-11-30T04:13:08.480Z,9.14
2022-11-30T04:15:36.153Z,9.36
2022-11-30T04:18:03.628Z,9.49
2022-11-30T04:20:31.713Z,9.27
2022-11-30T04:23:01.311Z,9.33
2022-11-30T04:25:28.799Z,9.62
2022-11-30T04:27:56.267Z,9.22
2022-11-30T04:30:25.158Z,8.74
2022-11-30T04:32:52.663Z,9.16
2022-11-30T04:35:20.212Z,9.40
2022-11-30T04:37:47.651Z,9.59
2022-11-30T04:40:15.252Z,9.27
2022-11-30T04:42:42.740Z,9.38
2022-11-30T04:45:10.884Z,9.53
2022-11-30T04:47:39.732Z,9.34
2022-11-30T04:50:08.518Z,9.84
2022-11-30T04:52:36.224Z,9.23
2022-11-30T04:55:04.334Z,9.26
2022-11-30T04:57:32.024Z,9.23
2022-11-30T04:59:59.610Z,8.76
2022-11-30T05:02:27.096Z,8.88
2022-11-30T05:04:55.927Z,8.67
2022-11-30T05:07:23.425Z,8.74
2022-11-30T05:09:50.907Z,9.14
2022-11-30T05:12:18.370Z,8.73
2022-11-30T05:14:46.149Z,9.09
2022-11-30T05:17:13.775Z,8.64
2022-11-30T05:19:41.269Z,9.02
2022-11-30T05:22:10.165Z,9.32
2022-11-30T05:24:37.661Z,9.06
2022-11-30T05:27:10.675Z,8.57
2022-11-30T05:29:40.983Z,8.70
2022-11-30T05:32:08.505Z,8.41
2022-11-30T05:34:49.694Z,8.44
2022-11-30T05:37:19.852Z,8.42
2022-11-30T05:39:47.355Z,8.36
2022-11-30T05:42:14.847Z,8.54
2022-11-30T05:44:42.435Z,8.19
2022-11-30T05:47:10.102Z,8.45
2022-11-30T05:49:37.596Z,8.49
2022-11-30T05:52:05.162Z,8.42
2022-11-30T05:54:34.264Z,8.34
2022-11-30T05:57:01.735Z,8.90
2022-11-30T05:59:29.220Z,9.18
2022-11-30T06:01:56.801Z,8.98
2022-11-30T06:04:24.414Z,8.52
2022-11-30T06:06:55.517Z,8.52
2022-11-30T06:09:23.232Z,8.51
2022-11-30T06:11:52.210Z,8.56
2022-11-30T06:14:19.740Z,8.75
2022-11-30T06:16:47.334Z,9.10
2022-11-30T06:19:14.918Z,8.84
2022-11-30T06:21:42.379Z,8.88
2022-11-30T06:24:10.667Z,8.76
2022-11-30T06:26:38.143Z,9.25
2022-11-30T06:29:07.016Z,9.13
2022-11-30T06:31:34.536Z,9.48
2022-11-30T06:34:02.086Z,9.47
2022-11-30T06:36:35.478Z,9.51
2022-11-30T06:39:03.932Z,9.92
2022-11-30T06:41:31.512Z,9.30
2022-11-30T06:43:59.012Z,9.28
2022-11-30T06:46:27.936Z,8.27
2022-11-30T06:48:55.719Z,8.50
2022-11-30T06:51:23.217Z,7.88
2022-11-30T06:53:50.689Z,7.99
2022-11-30T06:56:18.132Z,7.85
2022-11-30T06:58:45.598Z,7.78
2022-11-30T07:01:13.929Z,8.27
2022-11-30T07:03:43.451Z,8.31
2022-11-30T07:06:12.003Z,8.27
2022-11-30T07:08:39.566Z,7.99
2022-11-30T07:11:07.392Z,8.45
2022-11-30T07:13:34.993Z,8.90
2022-11-30T07:16:04.095Z,8.24
2022-11-30T07:18:32.298Z,8.87
2022-11-30T07:21:01.822Z,8.51
2022-11-30T07:23:50.781Z,8.10
2022-11-30T07:26:22.188Z,8.17
2022-11-30T07:28:54.330Z,8.07
2022-11-30T07:31:22.937Z,8.51
2022-11-30T07:33:50.942Z,8.61
2022-11-30T07:36:20.249Z,8.45
2022-11-30T07:38:47.724Z,8.42
2022-11-30T07:41:15.265Z,8.78
2022-11-30T07:43:42.772Z,8.62
2022-11-30T07:46:10.925Z,8.86
2022-11-30T07:48:38.476Z,8.61
2022-11-30T07:51:06.258Z,8.64
2022-11-30T07:53:35.289Z,8.47
2022-11-30T07:56:03.777Z,8.44
2022-11-30T07:58:31.717Z,8.02
2022-11-30T08:01:02.583Z,8.31
2022-11-30T08:03:33.695Z,8.66
2022-11-30T08:06:04.664Z,8.35
2022-11-30T08:08:32.802Z,8.11
2022-11-30T08:11:02.003Z,7.90
2022-11-30T08:13:29.676Z,7.86
2022-11-30T08:15:57.267Z,7.95
2022-11-30T08:18:24.842Z,8.15
2022-11-30T08:20:57.356Z,8.36
2022-11-30T08:23:24.908Z,8.51
2022-11-30T08:25:52.369Z,8.66
2022-11-30T08:28:21.260Z,8.03
2022-11-30T08:30:48.832Z,7.97
2022-11-30T08:33:16.343Z,8.48
2022-11-30T08:35:43.865Z,7.99
2022-11-30T08:38:11.433Z,8.33
2022-11-30T08:40:38.984Z,8.93
2022-11-30T08:43:06.537Z,8.38
2022-11-30T08:45:35.428Z,8.69
2022-11-30T08:48:02.924Z,8.56
2022-11-30T08:50:30.416Z,7.83
2022-11-30T08:53:03.170Z,8.18
2022-11-30T08:55:33.794Z,7.90
2022-11-30T08:58:01.239Z,8.22
2022-11-30T09:00:28.783Z,7.92
2022-11-30T09:02:57.775Z,8.34
2022-11-30T09:05:25.279Z,8.19
2022-11-30T09:07:52.785Z,8.10
2022-11-30T09:10:20.393Z,8.41
2022-11-30T09:12:47.885Z,8.63
2022-11-30T09:15:15.363Z,8.39
2022-11-30T09:17:42.917Z,8.27
2022-11-30T09:20:12.565Z,7.79
2022-11-30T09:22:40.085Z,7.72
2022-11-30T09:25:07.980Z,8.13
2022-11-30T09:27:35.449Z,7.90
2022-11-30T09:30:02.992Z,8.40
2022-11-30T09:32:30.547Z,7.58
2022-11-30T09:34:58.004Z,7.91
2022-11-30T09:37:26.866Z,8.03
2022-11-30T09:39:54.445Z,8.31
2022-11-30T09:42:29.866Z,8.39
2022-11-30T09:45:02.027Z,7.77
2022-11-30T09:47:44.351Z,7.84
2022-11-30T09:50:12.397Z,8.34
2022-11-30T09:52:42.240Z,8.36
2022-11-30T09:55:10.430Z,8.52
2022-11-30T09:57:42.373Z,8.08
2022-11-30T10:00:12.461Z,7.93
2022-11-30T10:02:40.111Z,8.63
2022-11-30T10:05:13.028Z,8.04
2022-11-30T10:07:45.310Z,7.68
2022-11-30T10:10:31.616Z,8.37
2022-11-30T10:13:01.651Z,7.96
2022-11-30T10:15:31.470Z,8.81
2022-11-30T10:18:01.197Z,8.22
2022-11-30T10:20:52.626Z,8.20
2022-11-30T10:23:26.747Z,9.03
2022-11-30T10:25:55.536Z,9.20
2022-11-30T10:28:46.510Z,8.44
2022-11-30T10:31:12.498Z,8.77
2022-11-30T10:33:41.941Z,8.25
2022-11-30T10:36:10.555Z,8.98
2022-11-30T10:38:40.665Z,8.53
2022-11-30T10:41:09.363Z,8.35
2022-11-30T10:43:38.740Z,8.28
2022-11-30T10:46:06.479Z,8.42
2022-11-30T10:48:35.586Z,8.51
2022-11-30T10:51:03.163Z,8.39
2022-11-30T10:53:30.590Z,8.69
2022-11-30T10:56:01.301Z,8.54
2022-11-30T10:58:29.519Z,8.74
2022-11-30T11:01:00.361Z,8.61
2022-11-30T11:03:28.028Z,8.40
2022-11-30T11:06:06.067Z,8.39
2022-11-30T11:08:33.620Z,8.27
2022-11-30T11:11:02.468Z,8.34
2022-11-30T11:13:39.716Z,8.47
2022-11-30T11:16:08.545Z,8.01
2022-11-30T11:18:36.312Z,8.14
2022-11-30T11:21:06.658Z,8.11
2022-11-30T11:23:35.948Z,7.80
2022-11-30T11:26:05.023Z,7.70
2022-11-30T11:28:32.605Z,7.88
2022-11-30T11:31:00.206Z,8.15
2022-11-30T11:33:28.087Z,8.32
2022-11-30T11:35:55.928Z,8.27
2022-11-30T11:38:24.534Z,8.23
2022-11-30T11:40:52.950Z,8.37
2022-11-30T11:43:21.876Z,8.52
2022-11-30T11:45:52.116Z,8.62
2022-11-30T11:48:29.147Z,8.41
2022-11-30T11:51:06.661Z,8.77
2022-11-30T11:53:43.909Z,9.37
2022-11-30T11:56:15.398Z,8.64
2022-11-30T11:58:45.028Z,8.86
2022-11-30T12:01:38.811Z,8.71
2022-11-30T12:04:06.639Z,8.33
2022-11-30T12:06:34.294Z,8.17
2022-11-30T12:09:03.051Z,7.61
2022-11-30T12:11:31.095Z,8.19
2022-11-30T12:14:01.755Z,8.36
2022-11-30T12:16:33.502Z,8.23
2022-11-30T12:19:01.510Z,8.17
2022-11-30T12:21:31.777Z,8.40
2022-11-30T12:24:17.394Z,8.14
2022-11-30T12:26:45.563Z,8.57
2022-11-30T12:29:20.597Z,8.92
2022-11-30T12:31:51.306Z,8.40
2022-11-30T12:34:20.109Z,8.67
2022-11-30T12:36:49.926Z,8.62
2022-11-30T12:39:19.337Z,8.34
2022-11-30T12:41:48.449Z,8.26
2022-11-30T12:44:20.976Z,8.81
2022-11-30T12:46:51.714Z,8.10
2022-11-30T12:49:26.374Z,8.62
2022-11-30T12:51:55.159Z,8.08
2022-11-30T12:54:24.097Z,8.44
2022-11-30T12:56:52.983Z,8.55
2022-11-30T12:59:26.339Z,8.87
2022-11-30T13:02:10.234Z,8.27
2022-11-30T13:04:38.387Z,8.10
2022-11-30T13:07:08.567Z,7.87
2022-11-30T13:09:36.256Z,7.91
2022-11-30T13:12:04.784Z,8.23
2022-11-30T13:14:33.633Z,8.42
2022-11-30T13:17:01.731Z,7.82
2022-11-30T13:19:44.023Z,8.03
2022-11-30T13:22:13.651Z,7.97
2022-11-30T13:24:41.460Z,8.39
2022-11-30T13:27:09.907Z,8.28
2022-11-30T13:29:47.498Z,8.22
2022-11-30T13:32:41.053Z,8.37
2022-11-30T13:35:18.235Z,7.39
2022-11-30T13:37:45.757Z,7.66
2022-11-30T13:40:20.218Z,8.40
2022-11-30T13:42:51.765Z,7.92
2022-11-30T13:45:23.213Z,8.00
2022-11-30T13:47:51.086Z,8.81
2022-11-30T13:50:21.871Z,8.32
2022-11-30T13:53:07.823Z,7.83
2022-11-30T13:55:45.957Z,8.34
2022-11-30T13:58:13.960Z,8.12
2022-11-30T14:00:46.249Z,7.68
2022-11-30T14:03:18.534Z,8.06
2022-11-30T14:05:46.651Z,8.28
2022-11-30T14:08:18.877Z,8.74
2022-11-30T14:10:46.536Z,8.25
2022-11-30T14:13:30.644Z,7.75
2022-11-30T14:16:01.210Z,7.53
2022-11-30T14:18:31.825Z,8.03
2022-11-30T14:20:59.643Z,7.88
2022-11-30T14:23:28.275Z,8.46
2022-11-30T14:25:56.588Z,8.16
2022-11-30T14:28:25.327Z,8.41
2022-11-30T14:30:53.024Z,7.95
2022-11-30T14:33:24.069Z,7.66
2022-11-30T14:35:54.514Z,7.77
2022-11-30T14:38:24.800Z,8.00
2022-11-30T14:40:52.582Z,7.81
2022-11-30T14:43:20.122Z,8.33
2022-11-30T14:46:03.047Z,8.28
2022-11-30T14:48:34.145Z,7.79
2022-11-30T14:51:02.761Z,7.83
2022-11-30T14:53:33.117Z,7.50
2022-11-30T14:56:01.357Z,7.68
2022-11-30T14:58:32.292Z,8.21
2022-11-30T15:00:59.844Z,7.95
2022-11-30T15:03:28.395Z,7.66
2022-11-30T15:05:57.852Z,7.43
2022-11-30T15:08:25.396Z,7.78
2022-11-30T15:10:52.844Z,7.57
2022-11-30T15:13:20.448Z,7.61
2022-11-30T15:15:51.503Z,7.53
2022-11-30T15:18:19.349Z,8.16
2022-11-30T15:20:48.892Z,7.78
2022-11-30T15:23:17.934Z,8.15
2022-11-30T15:25:46.797Z,7.95
2022-11-30T15:28:15.610Z,7.82
2022-11-30T15:30:43.523Z,8.43
2022-11-30T15:33:14.420Z,7.99
2022-11-30T15:36:12.104Z,8.00
2022-11-30T15:38:30.753Z,7.83
2022-11-30T15:41:03.305Z,7.68
2022-11-30T15:43:32.231Z,7.54
2022-11-30T15:45:59.933Z,7.30
2022-11-30T15:48:28.523Z,7.25
2022-11-30T15:50:56.035Z,7.52
2022-11-30T15:53:24.749Z,8.26
2022-11-30T15:55:54.442Z,8.17
2022-11-30T15:58:32.200Z,8.04
2022-11-30T16:01:05.571Z,7.70
2022-11-30T16:03:33.845Z,7.86
2022-11-30T16:06:01.868Z,7.81
2022-11-30T16:08:29.448Z,7.68
2022-11-30T16:11:00.027Z,7.71
2022-11-30T16:13:31.332Z,7.54
2022-11-30T16:16:00.987Z,7.84
2022-11-30T16:18:28.935Z,7.61
2022-11-30T16:20:56.987Z,7.20
2022-11-30T16:23:24.444Z,7.20
2022-11-30T16:25:51.893Z,7.48
2022-11-30T16:28:21.305Z,8.01
2022-11-30T16:30:48.953Z,7.88
2022-11-30T16:33:17.581Z,7.62
2022-11-30T16:35:47.289Z,7.52
2022-11-30T16:38:14.792Z,7.31
2022-11-30T16:40:42.347Z,7.36
2022-11-30T16:43:11.227Z,7.72
2022-11-30T16:45:40.355Z,7.91
2022-11-30T16:48:08.285Z,7.55
2022-11-30T16:50:35.755Z,7.29
2022-11-30T16:53:03.458Z,7.13
2022-11-30T16:55:31.435Z,7.27
2022-11-30T16:57:59.037Z,7.31
2022-11-30T17:00:26.631Z,7.35
2022-11-30T17:02:58.084Z,7.32
2022-11-30T17:05:25.663Z,7.93
2022-11-30T17:07:53.375Z,7.45
2022-11-30T17:10:20.963Z,7.33
2022-11-30T17:12:48.616Z,7.89
2022-11-30T17:15:16.937Z,7.94
2022-11-30T17:17:44.484Z,7.16
2022-11-30T17:20:14.117Z,7.44
2022-11-30T17:22:41.792Z,7.16
2022-11-30T17:25:10.184Z,7.11
2022-11-30T17:27:37.649Z,7.46
2022-11-30T17:30:05.956Z,7.24
2022-11-30T17:32:33.449Z,7.60
2022-11-30T17:35:00.992Z,7.31
2022-11-30T17:37:29.849Z,7.56
2022-11-30T17:39:58.339Z,7.49
2022-11-30T17:42:25.867Z,7.26
2022-11-30T17:44:53.343Z,7.11
2022-11-30T17:47:22.179Z,7.90
2022-11-30T17:49:49.741Z,7.82
2022-11-30T17:52:17.199Z,7.75
2022-11-30T17:54:46.282Z,7.96
2022-11-30T17:57:13.981Z,7.67
2022-11-30T17:59:41.439Z,7.44
2022-11-30T18:02:10.367Z,7.94
2022-11-30T18:04:37.910Z,7.83
2022-11-30T18:07:05.418Z,7.47
2022-11-30T18:09:37.814Z,7.58
2022-11-30T18:12:09.962Z,7.64
2022-11-30T18:14:37.526Z,7.95
2022-11-30T18:17:05.112Z,8.11
2022-11-30T18:19:32.583Z,8.02
2022-11-30T18:22:00.245Z,8.20
2022-11-30T18:24:27.769Z,8.15
2022-11-30T18:26:55.277Z,8.09
2022-11-30T18:29:24.175Z,7.97
2022-11-30T18:31:52.319Z,8.13
2022-11-30T18:34:19.865Z,7.95
2022-11-30T18:36:47.404Z,8.23
2022-11-30T18:39:15.063Z,7.88
2022-11-30T18:41:42.548Z,8.04
2022-11-30T18:44:10.351Z,7.36
2022-11-30T18:46:39.217Z,7.26
2022-11-30T18:49:07.129Z,7.63
2022-11-30T18:51:34.773Z,7.92
2022-11-30T18:54:03.065Z,7.80
2022-11-30T18:56:31.059Z,7.61
2022-11-30T18:58:59.205Z,7.88
2022-11-30T19:01:26.801Z,7.71
2022-11-30T19:03:56.162Z,7.67
2022-11-30T19:06:24.881Z,7.80
2022-11-30T19:08:52.549Z,7.71
2022-11-30T19:11:20.097Z,7.49
2022-11-30T19:13:47.583Z,7.61
2022-11-30T19:16:16.370Z,7.70
2022-11-30T19:18:44.922Z,8.32
2022-11-30T19:21:14.847Z,7.83
2022-11-30T19:23:42.521Z,8.00
2022-11-30T19:26:11.164Z,7.98
2022-11-30T19:28:39.111Z,7.83
2022-11-30T19:31:10.114Z,8.05
2022-11-30T19:33:37.902Z,8.10
2022-11-30T19:36:06.358Z,7.78
2022-11-30T19:38:35.278Z,7.79
2022-11-30T19:41:05.414Z,7.33
2022-11-30T19:43:32.952Z,7.81
2022-11-30T19:46:04.674Z,7.49
2022-11-30T19:48:32.219Z,7.57
2022-11-30T19:50:59.788Z,7.81
2022-11-30T19:53:27.306Z,7.96
2022-11-30T19:55:56.205Z,8.35
2022-11-30T19:58:23.723Z,7.99
2022-11-30T20:00:51.176Z,7.81
2022-11-30T20:03:19.828Z,8.12
2022-11-30T20:05:50.337Z,8.35
2022-11-30T20:08:17.820Z,7.85
2022-11-30T20:10:45.512Z,7.90
2022-11-30T20:13:14.344Z,8.24
2022-11-30T20:15:42.031Z,8.23
2022-11-30T20:18:09.524Z,8.21
2022-11-30T20:20:36.987Z,7.65
2022-11-30T20:23:04.918Z,8.34
2022-11-30T20:25:32.877Z,7.74
2022-11-30T20:28:00.432Z,7.74
2022-11-30T20:30:29.392Z,8.02
2022-11-30T20:32:56.930Z,8.37
2022-11-30T20:35:24.443Z,8.06
2022-11-30T20:37:52.003Z,8.06
2022-11-30T20:40:22.204Z,7.81
2022-11-30T20:42:49.759Z,7.94
2022-11-30T20:45:17.227Z,7.88
2022-11-30T20:47:46.040Z,7.52
2022-11-30T20:50:13.530Z,7.88
2022-11-30T20:52:41.001Z,7.64
2022-11-30T20:55:08.892Z,7.92
2022-11-30T20:57:36.747Z,8.10
2022-11-30T21:00:10.096Z,7.87
2022-11-30T21:02:40.361Z,8.22
2022-11-30T21:05:09.543Z,7.75
2022-11-30T21:07:37.131Z,7.74
2022-11-30T21:10:04.915Z,8.01
2022-11-30T21:12:32.436Z,8.30
2022-11-30T21:14:59.939Z,8.05
2022-11-30T21:17:27.427Z,7.86
2022-11-30T21:19:54.919Z,7.47
2022-11-30T21:22:23.851Z,7.69
2022-11-30T21:24:51.327Z,7.92
2022-11-30T21:27:18.855Z,8.53
2022-11-30T21:29:46.335Z,8.46
2022-11-30T21:32:13.815Z,8.15
2022-11-30T21:34:41.275Z,7.53
2022-11-30T21:37:08.860Z,7.95
2022-11-30T21:39:37.732Z,7.53
2022-11-30T21:42:05.235Z,7.73
2022-11-30T21:44:32.700Z,8.24
2022-11-30T21:47:00.150Z,7.43
2022-11-30T21:49:27.651Z,8.40
2022-11-30T21:51:55.112Z,7.89
2022-11-30T21:54:22.580Z,7.47
2022-11-30T21:56:52.535Z,7.53
2022-11-30T21:59:20.201Z,7.85
2022-11-30T22:01:47.717Z,7.44
2022-11-30T22:04:15.542Z,7.50
2022-11-30T22:06:43.286Z,7.60
2022-11-30T22:09:12.415Z,7.77
2022-11-30T22:11:40.405Z,7.68
2022-11-30T22:14:11.749Z,7.72
2022-11-30T22:16:39.285Z,7.41
2022-11-30T22:19:07.262Z,7.95
2022-11-30T22:21:34.900Z,7.62
2022-11-30T22:24:02.881Z,7.47
2022-11-30T22:26:30.837Z,7.54
2022-11-30T22:28:59.021Z,7.27
2022-11-30T22:31:28.922Z,7.25
2022-11-30T22:33:57.022Z,7.51
2022-11-30T22:36:25.360Z,7.79
2022-11-30T22:38:54.524Z,7.66
2022-11-30T22:41:22.155Z,7.38
2022-11-30T22:43:49.704Z,7.27
2022-11-30T22:46:17.886Z,7.35
2022-11-30T22:48:46.843Z,6.97
2022-11-30T22:51:15.150Z,7.60
2022-11-30T22:53:42.833Z,6.91
2022-11-30T22:56:11.729Z,7.56
2022-11-30T22:58:39.395Z,7.35
2022-11-30T23:01:10.540Z,7.49
2022-11-30T23:03:38.367Z,7.59
2022-11-30T23:06:07.734Z,8.05
2022-11-30T23:08:35.366Z,7.44
2022-11-30T23:11:04.060Z,7.48
2022-11-30T23:13:31.603Z,7.32
2022-11-30T23:15:59.952Z,7.27
2022-11-30T23:18:27.864Z,7.20
2022-11-30T23:20:55.760Z,7.94
2022-11-30T23:23:24.684Z,7.59
2022-11-30T23:25:52.211Z,7.62
2022-11-30T23:28:19.706Z,7.47
2022-11-30T23:30:47.230Z,7.33
2022-11-30T23:33:14.684Z,7.85
2022-11-30T23:35:43.440Z,7.98
2022-11-30T23:38:12.312Z,7.98
2022-11-30T23:40:41.148Z,7.26
2022-11-30T23:43:08.677Z,7.22
2022-11-30T23:45:36.203Z,7.45
2022-11-30T23:48:03.692Z,7.17
2022-11-30T23:50:31.212Z,7.49
2022-11-30T23:52:58.691Z,7.67
2022-11-30T23:55:26.191Z,8.09
2022-11-30T23:57:55.104Z,7.29
